Byrd — NBYR — position and weather

sailwx.info

Track history (hours):
 
Tides and Currents Weather Stations Pressure Air Temp Water Temp Dewpoint Dewpoint Depression Visibility Wind Speed Wind Dir Waves Ship Positions

Byrd

Last reported at 2018-Jun-05 06:28 UTC. Time now 2018-Jul-16 19:42 UTC.
Position N 01°24' E 103°15'.
Warning: this ship's position is 41 days out of date.

Length 211 m; draft 8.7 m.

Type: Other ship. MMSI: 369499000.

Date/timePositionNaut miles runAvg speedWind from/ knotsBaromVisibWave heightAir tempDewpointWater temp
2018-Jun-05 06:28N 01°24' E 103°15'817.1
2018-Jun-05 05:59N 01°19' E 103°21'816.5
2018-Jun-05 05:30N 01°14' E 103°27'816.8
2018-Jun-05 04:59N 01°12' E 103°36'817.3
2018-Jun-05 04:30N 01°09' E 103°43'816.2
2018-Jun-05 04:00N 01°12' E 103°51'816.6
2018-Jun-05 03:30N 01°15' E 103°59'510.6
2018-Jun-05 03:00N 01°16' E 104°04'714.2
2018-Jun-05 02:29N 01°17' E 104°11'916.8
2018-Jun-05 01:57N 01°19' E 104°20'816.7
2018-Jun-05 01:27N 01°24' E 104°26'  
Track history (hours):
 
Tides and Currents Weather Stations Pressure Air Temp Water Temp Dewpoint Dewpoint Depression Visibility Wind Speed Wind Dir Waves Ship Positions

Byrd

Last reported at 2018-Jun-05 06:28 UTC. Time now 2018-Jul-16 19:42 UTC.
Position N 01°24' E 103°15'.
Warning: this ship's position is 41 days out of date.

Length 211 m; draft 8.7 m.

Type: Other ship. MMSI: 369499000.

Date/timePositionNaut miles runAvg speedWind from/ knotsBaromVisibWave heightAir tempDewpointWater temp
2018-Jun-05 06:28N 01°24' E 103°15'817.1
2018-Jun-05 05:59N 01°19' E 103°21'816.5
2018-Jun-05 05:30N 01°14' E 103°27'816.8
2018-Jun-05 04:59N 01°12' E 103°36'817.3
2018-Jun-05 04:30N 01°09' E 103°43'816.2
2018-Jun-05 04:00N 01°12' E 103°51'816.6
2018-Jun-05 03:30N 01°15' E 103°59'510.6
2018-Jun-05 03:00N 01°16' E 104°04'714.2
2018-Jun-05 02:29N 01°17' E 104°11'916.8
2018-Jun-05 01:57N 01°19' E 104°20'816.7
2018-Jun-05 01:27N 01°24' E 104°26'  

Dump ship's entire track history